createdAt,value
2022-12-09T00:01:49.380Z,18.83
2022-12-09T00:04:18.548Z,18.13
2022-12-09T00:06:46.758Z,18.45
2022-12-09T00:09:16.204Z,20.10
2022-12-09T00:11:44.660Z,18.02
2022-12-09T00:14:13.018Z,19.25
2022-12-09T00:16:42.591Z,19.80
2022-12-09T00:19:11.060Z,21.48
2022-12-09T00:21:39.062Z,20.43
2022-12-09T00:24:08.964Z,18.70
2022-12-09T00:26:37.081Z,21.10
2022-12-09T00:29:05.474Z,20.20
2022-12-09T00:31:35.668Z,19.98
2022-12-09T00:34:07.007Z,20.20
2022-12-09T00:36:35.811Z,20.67
2022-12-09T00:39:04.319Z,20.55
2022-12-09T00:41:32.269Z,20.48
2022-12-09T00:44:00.551Z,19.90
2022-12-09T00:46:28.826Z,20.52
2022-12-09T00:48:57.225Z,19.88
2022-12-09T00:51:27.089Z,20.00
2022-12-09T00:53:55.952Z,19.90
2022-12-09T00:56:25.408Z,20.80
2022-12-09T00:58:53.500Z,19.25
2022-12-09T01:01:21.783Z,19.80
2022-12-09T01:03:50.242Z,20.00
2022-12-09T01:06:21.077Z,19.88
2022-12-09T01:08:50.779Z,20.42
2022-12-09T01:11:21.541Z,19.30
2022-12-09T01:13:50.293Z,19.40
2022-12-09T01:16:21.104Z,18.70
2022-12-09T01:18:49.491Z,19.27
2022-12-09T01:21:18.277Z,19.25
2022-12-09T01:23:46.460Z,19.65
2022-12-09T01:26:15.967Z,19.65
2022-12-09T01:28:44.073Z,19.48
2022-12-09T01:31:15.508Z,19.95
2022-12-09T01:33:44.163Z,19.50
2022-12-09T01:36:17.618Z,19.90
2022-12-09T01:38:45.999Z,19.77
2022-12-09T01:41:16.594Z,19.92
2022-12-09T01:43:45.339Z,20.25
2022-12-09T01:46:14.066Z,19.60
2022-12-09T01:48:46.048Z,18.88
2022-12-09T01:51:16.484Z,19.95
2022-12-09T01:53:47.248Z,21.52
2022-12-09T01:56:21.218Z,21.30
2022-12-09T01:58:50.325Z,20.08
2022-12-09T02:01:19.543Z,21.58
2022-12-09T02:03:48.573Z,20.77
2022-12-09T02:06:16.877Z,19.80
2022-12-09T02:08:45.688Z,19.10
2022-12-09T02:11:24.431Z,19.67
2022-12-09T02:14:02.064Z,19.77
2022-12-09T02:16:35.644Z,20.70
2022-12-09T02:19:17.851Z,20.58
2022-12-09T02:21:55.301Z,19.80
2022-12-09T02:24:31.238Z,19.73
2022-12-09T02:27:06.144Z,19.55
2022-12-09T02:30:08.685Z,18.23
2022-12-09T02:33:12.268Z,17.80
2022-12-09T02:35:45.152Z,19.10
2022-12-09T02:38:18.596Z,18.20
2022-12-09T02:40:50.483Z,18.63
2022-12-09T02:43:21.335Z,17.70
2022-12-09T02:45:51.245Z,16.95
2022-12-09T02:48:24.652Z,16.17
2022-12-09T02:50:56.638Z,17.00
2022-12-09T02:53:26.746Z,17.00
2022-12-09T02:55:57.143Z,16.98
2022-12-09T02:58:25.312Z,17.08
2022-12-09T03:00:57.229Z,17.67
2022-12-09T03:03:26.338Z,17.77
2022-12-09T03:06:01.735Z,17.13
2022-12-09T03:08:38.060Z,17.13
2022-12-09T03:11:08.961Z,17.02
2022-12-09T03:13:46.301Z,17.40
2022-12-09T03:16:20.886Z,18.50
2022-12-09T03:18:53.472Z,17.52
2022-12-09T03:21:24.941Z,18.07
2022-12-09T03:23:56.105Z,17.87
2022-12-09T03:26:28.785Z,16.67
2022-12-09T03:28:58.403Z,17.92
2022-12-09T03:31:30.019Z,17.40
2022-12-09T03:34:03.611Z,16.23
2022-12-09T03:36:37.924Z,17.00
2022-12-09T03:39:11.119Z,16.10
2022-12-09T03:41:44.610Z,16.20
2022-12-09T03:44:17.916Z,17.15
2022-12-09T03:46:46.577Z,18.23
2022-12-09T03:49:15.335Z,17.33
2022-12-09T03:51:48.269Z,16.00
2022-12-09T03:54:21.440Z,16.93
2022-12-09T03:56:53.327Z,16.60
2022-12-09T03:59:25.021Z,16.98
2022-12-09T04:01:53.768Z,16.20
2022-12-09T04:04:22.858Z,15.47
2022-12-09T04:06:54.503Z,17.10
2022-12-09T04:09:23.226Z,16.15
2022-12-09T04:11:51.682Z,16.50
2022-12-09T04:14:19.938Z,17.02
2022-12-09T04:16:48.227Z,14.90
2022-12-09T04:19:16.729Z,16.30
2022-12-09T04:21:44.863Z,15.27
2022-12-09T04:24:14.261Z,16.63
2022-12-09T04:26:42.500Z,16.23
2022-12-09T04:29:11.369Z,13.98
2022-12-09T04:31:39.675Z,15.30
2022-12-09T04:34:09.693Z,14.60
2022-12-09T04:36:38.762Z,14.60
2022-12-09T04:39:07.581Z,14.48
2022-12-09T04:41:37.602Z,14.07
2022-12-09T04:44:06.439Z,13.07
2022-12-09T04:46:35.000Z,14.48
2022-12-09T04:49:03.273Z,14.63
2022-12-09T04:51:37.542Z,14.38
2022-12-09T04:54:07.928Z,15.33
2022-12-09T04:56:37.533Z,14.20
2022-12-09T04:59:06.496Z,13.67
2022-12-09T05:01:34.998Z,13.50
2022-12-09T05:04:04.243Z,13.57
2022-12-09T05:06:32.823Z,14.55
2022-12-09T05:09:01.301Z,14.07
2022-12-09T05:11:29.746Z,13.93
2022-12-09T05:13:59.293Z,13.57
2022-12-09T05:16:28.093Z,14.00
2022-12-09T05:18:56.218Z,13.95
2022-12-09T05:21:24.395Z,14.55
2022-12-09T05:23:52.977Z,13.90
2022-12-09T05:26:23.456Z,13.27
2022-12-09T05:28:52.392Z,13.55
2022-12-09T05:31:23.855Z,13.70
2022-12-09T05:33:53.270Z,14.02
2022-12-09T05:36:24.305Z,12.40
2022-12-09T05:38:53.334Z,12.93
2022-12-09T05:41:22.816Z,14.40
2022-12-09T05:43:51.946Z,14.00
2022-12-09T05:46:21.991Z,13.45
2022-12-09T05:48:50.836Z,13.85
2022-12-09T05:51:26.272Z,13.45
2022-12-09T05:53:55.269Z,12.60
2022-12-09T05:56:25.485Z,13.57
2022-12-09T05:58:54.739Z,11.95
2022-12-09T06:01:25.014Z,13.43
2022-12-09T06:03:55.503Z,13.80
2022-12-09T06:06:27.987Z,13.30
2022-12-09T06:08:58.104Z,13.88
2022-12-09T06:11:27.838Z,13.20
2022-12-09T06:13:56.179Z,12.88
2022-12-09T06:16:26.063Z,13.02
2022-12-09T06:18:54.689Z,13.50
2022-12-09T06:21:23.680Z,13.75
2022-12-09T06:23:52.263Z,13.70
2022-12-09T06:26:22.352Z,14.00
2022-12-09T06:28:50.894Z,13.48
2022-12-09T06:31:19.675Z,13.77
2022-12-09T06:33:58.431Z,13.93
2022-12-09T06:36:29.164Z,12.98
2022-12-09T06:39:03.109Z,14.18
2022-12-09T06:41:36.568Z,13.13
2022-12-09T06:44:04.861Z,13.45
2022-12-09T06:46:33.100Z,13.20
2022-12-09T06:49:03.579Z,14.95
2022-12-09T06:51:32.007Z,13.65
2022-12-09T06:54:00.402Z,14.05
2022-12-09T06:56:28.974Z,13.53
2022-12-09T06:58:57.493Z,13.90
2022-12-09T07:01:27.017Z,13.65
2022-12-09T07:03:58.293Z,13.82
2022-12-09T07:06:30.125Z,13.73
2022-12-09T07:09:01.026Z,13.07
2022-12-09T07:11:29.710Z,13.30
2022-12-09T07:13:58.326Z,14.65
2022-12-09T07:16:26.814Z,13.55
2022-12-09T07:18:55.657Z,14.77
2022-12-09T07:21:24.957Z,13.98
2022-12-09T07:23:54.830Z,14.73
2022-12-09T07:26:22.985Z,14.63
2022-12-09T07:28:51.446Z,14.32
2022-12-09T07:31:21.447Z,15.50
2022-12-09T07:33:51.201Z,14.45
2022-12-09T07:36:21.547Z,14.32
2022-12-09T07:38:50.486Z,14.13
2022-12-09T07:41:20.329Z,14.18
2022-12-09T07:43:48.945Z,16.00
2022-12-09T07:46:19.105Z,13.90
2022-12-09T07:48:48.320Z,13.40
2022-12-09T07:51:17.147Z,13.38
2022-12-09T07:53:46.019Z,14.50
2022-12-09T07:56:15.845Z,13.98
2022-12-09T07:58:47.815Z,15.00
2022-12-09T08:01:18.224Z,13.93
2022-12-09T08:03:47.339Z,15.10
2022-12-09T08:06:17.226Z,14.20
2022-12-09T08:08:46.487Z,14.15
2022-12-09T08:11:17.347Z,15.00
2022-12-09T08:13:48.209Z,13.88
2022-12-09T08:16:19.523Z,14.60
2022-12-09T08:18:48.908Z,13.52
2022-12-09T08:21:27.822Z,13.95
2022-12-09T08:23:57.525Z,13.20
2022-12-09T08:26:27.912Z,12.85
2022-12-09T08:28:57.401Z,13.98
2022-12-09T08:31:28.526Z,14.00
2022-12-09T08:33:57.813Z,12.80
2022-12-09T08:36:28.513Z,13.05
2022-12-09T08:38:59.483Z,14.07
2022-12-09T08:41:36.830Z,13.55
2022-12-09T08:44:09.710Z,14.05
2022-12-09T08:46:39.962Z,13.75
2022-12-09T08:49:09.112Z,13.90
2022-12-09T08:51:38.115Z,12.70
2022-12-09T08:54:07.634Z,13.30
2022-12-09T08:56:36.105Z,14.57
2022-12-09T08:59:05.082Z,15.02
2022-12-09T09:01:35.783Z,14.25
2022-12-09T09:04:07.726Z,13.95
2022-12-09T09:06:37.318Z,14.67
2022-12-09T09:09:06.732Z,14.45
2022-12-09T09:11:35.569Z,14.03
2022-12-09T09:14:05.815Z,14.17
2022-12-09T09:16:36.423Z,14.00
2022-12-09T09:19:06.087Z,13.82
2022-12-09T09:21:35.779Z,15.65
2022-12-09T09:24:08.678Z,15.00
2022-12-09T09:26:40.008Z,15.07
2022-12-09T09:29:08.529Z,15.10
2022-12-09T09:31:38.378Z,16.20
2022-12-09T09:34:06.741Z,15.53
2022-12-09T09:36:35.469Z,16.60
2022-12-09T09:39:03.757Z,15.60
2022-12-09T09:41:44.757Z,15.93
2022-12-09T09:44:20.566Z,17.50
2022-12-09T09:46:51.900Z,16.93
2022-12-09T09:49:26.256Z,18.60
2022-12-09T09:51:55.020Z,19.67
2022-12-09T09:54:23.553Z,19.90
2022-12-09T09:56:58.009Z,18.00
2022-12-09T09:59:35.767Z,20.50
2022-12-09T10:02:17.212Z,24.88
2022-12-09T10:05:00.143Z,27.07
2022-12-09T10:07:36.754Z,26.80
2022-12-09T10:10:18.308Z,25.88
2022-12-09T10:13:08.164Z,26.10
2022-12-09T10:15:46.133Z,26.83
2022-12-09T10:18:22.091Z,26.33
2022-12-09T10:20:50.997Z,27.47
2022-12-09T10:23:20.213Z,25.87
2022-12-09T10:25:51.951Z,28.75
2022-12-09T10:28:23.944Z,29.98
2022-12-09T10:30:54.517Z,27.35
2022-12-09T10:33:28.483Z,28.17
2022-12-09T10:35:57.623Z,28.47
2022-12-09T10:38:27.506Z,28.30
2022-12-09T10:41:02.920Z,30.73
2022-12-09T10:43:38.907Z,29.13
2022-12-09T10:46:19.691Z,28.55
2022-12-09T10:48:59.051Z,27.73
2022-12-09T10:51:30.151Z,30.67
2022-12-09T10:54:00.856Z,29.52
2022-12-09T10:56:32.709Z,29.13
2022-12-09T10:59:12.879Z,30.73
2022-12-09T11:01:51.795Z,29.27
2022-12-09T11:04:26.828Z,27.63
2022-12-09T11:07:00.245Z,28.90
2022-12-09T11:09:32.004Z,27.58
2022-12-09T11:12:02.025Z,28.42
2022-12-09T11:14:36.880Z,28.58
2022-12-09T11:17:17.069Z,28.33
2022-12-09T11:19:50.732Z,29.35
2022-12-09T11:22:29.297Z,28.50
2022-12-09T11:25:16.621Z,28.27
2022-12-09T11:27:51.018Z,32.40
2022-12-09T11:30:22.403Z,31.15
2022-12-09T11:32:59.805Z,31.58
2022-12-09T11:35:33.138Z,28.50
2022-12-09T11:38:05.299Z,30.53
2022-12-09T11:40:34.104Z,29.88
2022-12-09T11:43:03.151Z,31.00
2022-12-09T11:45:34.572Z,29.50
2022-12-09T11:48:27.705Z,30.65
2022-12-09T11:50:57.860Z,28.67
2022-12-09T11:53:30.049Z,27.90
2022-12-09T11:56:04.733Z,29.42
2022-12-09T11:58:43.841Z,28.17
2022-12-09T12:01:19.071Z,30.45
2022-12-09T12:03:52.087Z,28.93
2022-12-09T12:06:23.730Z,28.27
2022-12-09T12:08:55.880Z,28.80
2022-12-09T12:11:29.538Z,27.77
2022-12-09T12:14:04.174Z,28.97
2022-12-09T12:16:39.941Z,28.65
2022-12-09T12:19:16.671Z,27.63
2022-12-09T12:22:09.493Z,28.60
2022-12-09T12:25:19.846Z,28.10
2022-12-09T12:28:02.226Z,30.02
2022-12-09T12:30:40.915Z,28.70
2022-12-09T12:34:07.931Z,29.23
2022-12-09T12:36:30.104Z,29.15
2022-12-09T12:39:14.330Z,28.85
2022-12-09T12:41:50.535Z,29.30
2022-12-09T12:44:53.553Z,28.77
2022-12-09T12:47:26.237Z,30.00
2022-12-09T12:50:31.472Z,28.38
2022-12-09T12:53:05.171Z,29.13
2022-12-09T12:55:54.959Z,28.90
2022-12-09T12:58:43.656Z,29.00
2022-12-09T13:01:18.009Z,28.65
2022-12-09T13:03:58.024Z,28.80
2022-12-09T13:06:36.434Z,28.05
2022-12-09T13:09:10.918Z,28.00
2022-12-09T13:11:50.498Z,28.30
2022-12-09T13:14:24.652Z,28.10
2022-12-09T13:16:53.730Z,29.40
2022-12-09T13:19:24.930Z,28.20
2022-12-09T13:21:53.622Z,29.75
2022-12-09T13:24:28.464Z,32.50
2022-12-09T13:27:04.751Z,31.47
2022-12-09T13:29:40.656Z,31.52
2022-12-09T13:32:27.794Z,32.28
2022-12-09T13:35:06.381Z,31.70
2022-12-09T13:37:55.703Z,33.60
2022-12-09T13:40:36.760Z,32.72
2022-12-09T13:43:13.678Z,34.55
2022-12-09T13:45:51.382Z,33.05
2022-12-09T13:48:41.099Z,32.60
2022-12-09T13:51:09.194Z,33.40
2022-12-09T13:53:45.852Z,33.53
2022-12-09T13:56:26.172Z,32.70
2022-12-09T13:59:36.564Z,31.25
2022-12-09T14:02:14.343Z,32.90
2022-12-09T14:04:48.727Z,32.15
2022-12-09T14:07:23.624Z,32.05
2022-12-09T14:09:55.396Z,33.03
2022-12-09T14:13:04.515Z,32.70
2022-12-09T14:15:39.741Z,32.90
2022-12-09T14:18:30.531Z,32.65
2022-12-09T14:21:28.518Z,33.63
2022-12-09T14:24:36.710Z,32.97
2022-12-09T14:27:13.649Z,33.38
2022-12-09T14:29:50.958Z,32.60
2022-12-09T14:32:29.020Z,32.63
2022-12-09T14:35:23.769Z,32.92
2022-12-09T14:38:04.760Z,32.03
2022-12-09T14:40:52.877Z,33.13
2022-12-09T14:43:47.106Z,31.75
2022-12-09T14:46:24.704Z,31.83
2022-12-09T14:48:58.012Z,31.40
2022-12-09T14:51:36.153Z,30.77
2022-12-09T14:54:08.394Z,32.47
2022-12-09T14:56:36.486Z,31.25
2022-12-09T14:59:07.489Z,31.75
2022-12-09T15:01:51.716Z,32.35
2022-12-09T15:04:32.305Z,31.45
2022-12-09T15:07:15.530Z,34.85
2022-12-09T15:09:52.734Z,35.25
2022-12-09T15:12:24.817Z,34.73
2022-12-09T15:14:59.037Z,35.20
2022-12-09T15:17:31.490Z,32.85
2022-12-09T15:20:01.790Z,32.43
2022-12-09T15:22:32.634Z,34.55
2022-12-09T15:25:03.052Z,32.80
2022-12-09T15:27:31.502Z,31.60
2022-12-09T15:29:59.708Z,33.90
2022-12-09T15:32:29.526Z,31.77
2022-12-09T15:35:15.488Z,31.00
2022-12-09T15:37:45.563Z,33.08
2022-12-09T15:40:16.885Z,31.73
2022-12-09T15:42:48.208Z,31.75
2022-12-09T15:45:19.924Z,30.77
2022-12-09T15:47:51.338Z,31.67
2022-12-09T15:50:22.250Z,31.25
2022-12-09T15:52:55.325Z,31.00
2022-12-09T15:55:27.605Z,31.20
2022-12-09T15:57:58.811Z,30.98
2022-12-09T16:00:26.803Z,29.52
2022-12-09T16:02:55.090Z,32.97
2022-12-09T16:05:25.786Z,30.67
2022-12-09T16:07:58.075Z,30.70
2022-12-09T16:10:27.635Z,31.25
2022-12-09T16:13:10.527Z,30.60
2022-12-09T16:15:45.786Z,31.38
2022-12-09T16:18:18.475Z,30.65
2022-12-09T16:21:00.481Z,31.17
2022-12-09T16:23:30.006Z,29.88
2022-12-09T16:26:06.606Z,31.05
2022-12-09T16:28:35.900Z,29.42
2022-12-09T16:31:16.639Z,30.10
2022-12-09T16:33:49.229Z,30.95
2022-12-09T16:36:20.299Z,29.10
2022-12-09T16:39:32.624Z,30.73
2022-12-09T16:42:03.017Z,31.70
2022-12-09T16:44:34.393Z,30.13
2022-12-09T16:47:14.443Z,30.92
2022-12-09T16:49:45.387Z,31.73
2022-12-09T16:52:15.039Z,31.00
2022-12-09T16:54:48.322Z,30.80
2022-12-09T16:57:18.645Z,33.60
2022-12-09T16:59:47.426Z,29.70
2022-12-09T17:02:20.044Z,29.88
2022-12-09T17:04:49.038Z,28.43
2022-12-09T17:07:29.997Z,29.00
2022-12-09T17:09:59.387Z,29.10
2022-12-09T17:12:27.485Z,28.58
2022-12-09T17:14:55.483Z,30.88
2022-12-09T17:17:23.491Z,30.58
2022-12-09T17:19:51.833Z,28.35
2022-12-09T17:22:19.912Z,27.92
2022-12-09T17:24:47.876Z,28.58
2022-12-09T17:27:17.337Z,29.55
2022-12-09T17:29:46.115Z,27.87
2022-12-09T17:32:14.537Z,26.95
2022-12-09T17:34:42.516Z,26.98
2022-12-09T17:37:10.487Z,27.42
2022-12-09T17:39:38.695Z,27.00
2022-12-09T17:42:06.772Z,25.35
2022-12-09T17:44:36.421Z,24.67
2022-12-09T17:47:04.444Z,25.20
2022-12-09T17:49:32.410Z,24.23
2022-12-09T17:52:00.426Z,24.75
2022-12-09T17:54:28.407Z,23.10
2022-12-09T17:56:56.395Z,24.73
2022-12-09T17:59:24.344Z,26.15
2022-12-09T18:01:53.752Z,23.90
2022-12-09T18:04:21.768Z,23.27
2022-12-09T18:06:49.836Z,24.50
2022-12-09T18:09:20.194Z,24.50
2022-12-09T18:11:48.538Z,25.02
2022-12-09T18:14:17.088Z,24.80
2022-12-09T18:16:46.428Z,25.25
2022-12-09T18:19:18.156Z,24.73
2022-12-09T18:21:46.611Z,26.40
2022-12-09T18:24:15.204Z,26.75
2022-12-09T18:26:43.669Z,25.90
2022-12-09T18:29:12.231Z,25.35
2022-12-09T18:31:40.493Z,24.58
2022-12-09T18:34:09.017Z,24.70
2022-12-09T18:36:38.398Z,21.93
2022-12-09T18:39:06.604Z,21.20
2022-12-09T18:41:35.455Z,21.83
2022-12-09T18:44:05.588Z,23.00
2022-12-09T18:46:36.446Z,21.27
2022-12-09T18:49:06.258Z,20.93
2022-12-09T18:51:34.604Z,21.63
2022-12-09T18:54:05.337Z,19.50
2022-12-09T18:56:34.181Z,19.67
2022-12-09T18:59:07.491Z,19.77
2022-12-09T19:01:39.439Z,21.73
2022-12-09T19:04:09.811Z,22.50
2022-12-09T19:06:39.959Z,24.00
2022-12-09T19:09:10.956Z,23.30
2022-12-09T19:11:40.712Z,22.85
2022-12-09T19:14:09.704Z,23.08
2022-12-09T19:16:38.465Z,22.27
2022-12-09T19:19:10.013Z,22.50
2022-12-09T19:21:38.732Z,23.20
2022-12-09T19:24:07.695Z,23.75
2022-12-09T19:26:37.848Z,24.17
2022-12-09T19:29:08.638Z,23.33
2022-12-09T19:31:39.395Z,23.40
2022-12-09T19:34:09.179Z,24.00
2022-12-09T19:36:37.221Z,23.75
2022-12-09T19:39:08.331Z,24.65
2022-12-09T19:41:38.455Z,24.40
2022-12-09T19:44:07.490Z,24.92
2022-12-09T19:46:36.653Z,23.73
2022-12-09T19:49:04.839Z,23.83
2022-12-09T19:51:32.855Z,25.38
2022-12-09T19:54:02.228Z,24.67
2022-12-09T19:56:31.076Z,24.08
2022-12-09T19:59:01.087Z,23.80
2022-12-09T20:01:31.479Z,24.98
2022-12-09T20:04:13.516Z,24.47
2022-12-09T20:06:47.967Z,24.95
2022-12-09T20:09:19.253Z,24.60
2022-12-09T20:11:47.316Z,24.40
2022-12-09T20:14:16.707Z,24.38
2022-12-09T20:16:44.752Z,23.33
2022-12-09T20:19:12.813Z,22.57
2022-12-09T20:21:40.860Z,22.10
2022-12-09T20:24:10.040Z,23.20
2022-12-09T20:26:39.468Z,21.20
2022-12-09T20:29:10.609Z,21.73
2022-12-09T20:31:40.795Z,21.95
2022-12-09T20:34:11.789Z,22.70
2022-12-09T20:36:42.396Z,22.50
2022-12-09T20:39:14.928Z,21.90
2022-12-09T20:41:44.361Z,20.92
2022-12-09T20:44:13.865Z,21.55
2022-12-09T20:46:47.317Z,22.23
2022-12-09T20:49:15.332Z,23.00
2022-12-09T20:51:45.241Z,20.83
2022-12-09T20:54:13.804Z,22.67
2022-12-09T20:56:42.029Z,21.53
2022-12-09T20:59:11.317Z,20.63
2022-12-09T21:01:40.060Z,21.98
2022-12-09T21:04:09.540Z,23.40
2022-12-09T21:06:40.136Z,23.70
2022-12-09T21:09:10.059Z,22.50
2022-12-09T21:11:38.323Z,23.30
2022-12-09T21:14:07.823Z,22.95
2022-12-09T21:16:38.690Z,22.30
2022-12-09T21:19:11.630Z,23.70
2022-12-09T21:21:41.776Z,23.23
2022-12-09T21:24:12.092Z,23.40
2022-12-09T21:26:40.478Z,24.05
2022-12-09T21:29:09.176Z,24.60
2022-12-09T21:31:38.793Z,25.52
2022-12-09T21:34:09.861Z,25.80
2022-12-09T21:36:39.480Z,25.27
2022-12-09T21:39:09.057Z,27.27
2022-12-09T21:41:38.012Z,26.00
2022-12-09T21:44:07.350Z,27.33
2022-12-09T21:46:37.755Z,25.85
2022-12-09T21:49:07.615Z,26.63
2022-12-09T21:51:36.995Z,26.50
2022-12-09T21:54:05.550Z,27.35
2022-12-09T21:56:35.604Z,26.90
2022-12-09T21:59:06.121Z,26.25
2022-12-09T22:01:36.286Z,28.42
2022-12-09T22:04:06.720Z,29.27
2022-12-09T22:06:36.552Z,27.60
2022-12-09T22:09:06.134Z,27.63
2022-12-09T22:11:38.022Z,28.77
2022-12-09T22:14:07.616Z,30.08
2022-12-09T22:16:38.474Z,28.35
2022-12-09T22:19:09.114Z,28.80
2022-12-09T22:21:38.599Z,30.55
2022-12-09T22:24:09.261Z,30.90
2022-12-09T22:26:37.306Z,32.70
2022-12-09T22:29:06.735Z,30.48
2022-12-09T22:31:37.361Z,31.30
2022-12-09T22:34:07.120Z,32.33
2022-12-09T22:36:36.964Z,31.75
2022-12-09T22:39:07.853Z,33.17
2022-12-09T22:41:36.291Z,30.65
2022-12-09T22:44:04.703Z,32.92
2022-12-09T22:46:34.947Z,32.30
2022-12-09T22:49:06.031Z,30.98
2022-12-09T22:51:35.651Z,32.15
2022-12-09T22:54:08.083Z,31.38
2022-12-09T22:56:39.128Z,32.08
2022-12-09T22:59:07.800Z,32.10
2022-12-09T23:01:37.761Z,31.40
2022-12-09T23:04:07.074Z,31.70
2022-12-09T23:06:36.485Z,29.77
2022-12-09T23:09:06.941Z,31.23
2022-12-09T23:11:35.312Z,31.00
2022-12-09T23:14:04.211Z,29.60
2022-12-09T23:16:32.229Z,30.27
2022-12-09T23:19:00.796Z,30.25
2022-12-09T23:21:30.469Z,29.70
2022-12-09T23:24:00.047Z,28.83
2022-12-09T23:26:32.104Z,29.10
2022-12-09T23:29:02.440Z,29.88
2022-12-09T23:31:32.132Z,29.10
2022-12-09T23:34:01.040Z,29.00
2022-12-09T23:36:31.980Z,29.25
2022-12-09T23:39:00.868Z,29.30
2022-12-09T23:41:31.198Z,29.30
2022-12-09T23:43:59.384Z,27.33
2022-12-09T23:46:28.701Z,28.67
2022-12-09T23:48:57.325Z,27.40
2022-12-09T23:51:26.857Z,28.73
2022-12-09T23:53:56.952Z,28.10
2022-12-09T23:56:27.526Z,26.42
2022-12-09T23:58:58.476Z,27.40
